Search for airport 
image banner adimage banner adimage banner ad
image banner ad

KMCC - Mc Clellan Airfield

Located in Sacramento, United States

ICAO - MCC, IATA - MCC

Data provided by Airmate  

General information

Coordinates: N38°40'4" W121°24'2"
Elevation is 77 feet MSL.
Magnetic variation is 17° East
View others Airports in California

Operational data

Special qualification required
Current time UTC:
Current local time:
Weather
TAF: KMCC 221123Z 2212/2312 16010KT P6SM SKC FM221700 21011G17KT P6SM SKC FM230600 16010KT P6SM SKC
View NOTAMs / SUP AIP / TFR affecting this airport [VIEW]
Communications frequencies: [VIEW]

Runways:

RWY identifierQFULength (ft)Width (ft)SurfaceLDA (ft)
16180°10599150CONC
3410599150CONC

Airport contact information

Address: Sacramento United States

Other aviation service providers

Flight schools

Flying Panthers Flight School, Inc

Flying Panthers Flight School, Inc

Satellite view of KMCC